Time;durP1;ratioP1;P1;durP2;ratioP2;P2;SDS_P1;SDS_P2;PMS_P1;PMS_P2;Temp;Humidity;BMP_temperature;BMP_pressure;BME280_temperature;BME280_humidity;BME280_pressure;Samples;Min_cycle;Max_cycle;Signal;HPM_P1;HPM_P2
2022/06/21 00:00:07;;;;;;;2.27;2.07;;;12.10;99.90;;;;;;5052197;28;20409;-69
2022/06/21 00:02:33;;;;;;;2.00;1.90;;;12.20;99.90;;;;;;5052019;28;20434;-69
2022/06/21 00:04:59;;;;;;;2.13;2.03;;;12.10;99.90;;;;;;5052380;28;20805;-69
2022/06/21 00:07:26;;;;;;;3.67;1.57;;;12.10;99.90;;;;;;5052122;28;20406;-69
2022/06/21 00:09:53;;;;;;;2.50;2.27;;;12.10;99.90;;;;;;5052283;28;20173;-69
2022/06/21 00:12:20;;;;;;;2.97;2.30;;;12.10;99.90;;;;;;5051920;28;20426;-68
2022/06/21 00:14:46;;;;;;;2.60;2.20;;;12.10;99.90;;;;;;5051544;28;20907;-69
2022/06/21 00:17:17;;;;;;;2.27;2.07;;;12.10;99.90;;;;;;5051970;28;20440;-69
2022/06/21 00:19:43;;;;;;;4.00;2.33;;;12.10;99.90;;;;;;5051941;28;20178;-69
2022/06/21 00:22:12;;;;;;;3.97;1.67;;;12.00;99.90;;;;;;5051196;28;20837;-68
2022/06/21 00:24:38;;;;;;;2.00;1.90;;;12.00;99.90;;;;;;5051795;28;20410;-69
2022/06/21 00:27:10;;;;;;;3.13;2.93;;;12.10;99.90;;;;;;5051898;28;20413;-69
2022/06/21 00:29:35;;;;;;;3.10;2.60;;;12.10;99.90;;;;;;5051842;28;20590;-69
2022/06/21 00:32:01;;;;;;;3.53;2.17;;;12.10;99.90;;;;;;5051633;28;20425;-68
2022/06/21 00:34:26;;;;;;;2.67;2.47;;;12.00;99.90;;;;;;5051648;28;20171;-69
2022/06/21 00:36:52;;;;;;;6.70;2.20;;;12.00;99.90;;;;;;5051350;28;20211;-70
2022/06/21 00:39:19;;;;;;;2.47;1.97;;;12.00;99.90;;;;;;5051785;28;20190;-69
2022/06/21 00:41:49;;;;;;;4.73;2.37;;;12.00;99.90;;;;;;5051977;28;20210;-68
2022/06/21 00:44:25;;;;;;;2.07;1.80;;;12.00;99.90;;;;;;5051748;28;20432;-69
2022/06/21 00:47:12;;;;;;;2.37;2.17;;;12.00;99.90;;;;;;5051922;28;20396;-68
2022/06/21 00:49:57;;;;;;;2.73;2.53;;;12.00;99.90;;;;;;5051958;28;20406;-69
2022/06/21 00:52:50;;;;;;;2.50;2.30;;;11.90;99.90;;;;;;5051209;28;20824;-68
2022/06/21 00:55:27;;;;;;;2.47;2.27;;;11.90;99.90;;;;;;5040904;28;20512;-69
2022/06/21 00:57:55;;;;;;;2.57;2.37;;;11.90;99.90;;;;;;5051443;28;20637;-69
2022/06/21 01:00:44;;;;;;;2.60;2.40;;;11.90;99.90;;;;;;5051638;28;20409;-69
2022/06/21 01:03:21;;;;;;;2.20;2.00;;;11.80;99.90;;;;;;5051391;28;20398;-69
2022/06/21 01:05:47;;;;;;;4.53;3.00;;;11.90;99.90;;;;;;5033365;28;20496;-69
2022/06/21 01:08:21;;;;;;;2.70;2.50;;;11.90;99.90;;;;;;5051424;28;20926;-69
2022/06/21 01:10:52;;;;;;;3.87;2.87;;;11.90;99.90;;;;;;5051380;28;20405;-69
2022/06/21 01:13:22;;;;;;;3.80;2.20;;;11.90;99.90;;;;;;5051407;28;20763;-69
2022/06/21 01:15:50;;;;;;;3.63;3.00;;;11.90;99.90;;;;;;5051284;28;20409;-69
2022/06/21 01:18:19;;;;;;;4.70;2.73;;;11.80;99.90;;;;;;5051402;28;20452;-69
2022/06/21 01:20:51;;;;;;;2.97;2.27;;;11.80;99.90;;;;;;5051470;28;20842;-69
2022/06/21 01:23:34;;;;;;;2.93;1.90;;;11.90;99.90;;;;;;5055825;28;20426;-70
2022/06/21 01:26:18;;;;;;;8.30;2.77;;;11.90;99.90;;;;;;5056050;28;20901;-69
2022/06/21 01:28:45;;;;;;;2.17;2.07;;;11.90;99.90;;;;;;5051288;28;20397;-69
2022/06/21 01:31:11;;;;;;;3.20;2.90;;;11.90;99.90;;;;;;5049201;28;20424;-67
2022/06/21 01:33:41;;;;;;;4.10;2.70;;;11.90;99.90;;;;;;5052940;28;20406;-69
2022/06/21 01:36:14;;;;;;;2.70;2.40;;;11.90;99.90;;;;;;5055082;28;20158;-69
2022/06/21 01:38:52;;;;;;;5.27;2.97;;;11.90;99.90;;;;;;5054895;28;20555;-69
2022/06/21 01:41:21;;;;;;;2.37;2.23;;;11.80;99.90;;;;;;5054861;28;20431;-68
2022/06/21 01:43:50;;;;;;;4.13;2.67;;;11.80;99.90;;;;;;5054591;28;20408;-69
2022/06/21 01:46:19;;;;;;;3.07;2.83;;;11.80;99.90;;;;;;5054454;28;20402;-69
2022/06/21 01:48:49;;;;;;;3.20;2.37;;;11.80;99.90;;;;;;5054454;28;20621;-69
2022/06/21 01:51:25;;;;;;;2.50;2.30;;;11.80;99.90;;;;;;5054779;28;20937;-68
2022/06/21 01:53:52;;;;;;;3.13;2.87;;;11.90;99.90;;;;;;5054915;28;20415;-68
2022/06/21 01:56:21;;;;;;;4.33;2.53;;;11.90;99.90;;;;;;5054948;28;20410;-68
2022/06/21 01:59:04;;;;;;;2.60;2.37;;;12.00;99.90;;;;;;5055041;28;20927;-68
2022/06/21 02:01:42;;;;;;;4.93;2.73;;;12.00;99.90;;;;;;5054790;28;20434;-68
2022/06/21 02:04:10;;;;;;;2.93;2.67;;;11.90;99.90;;;;;;5054936;28;20807;-69
2022/06/21 02:06:40;;;;;;;2.60;2.40;;;11.90;99.90;;;;;;5054320;28;20402;-69
2022/06/21 02:09:24;;;;;;;2.70;2.40;;;11.90;99.90;;;;;;5054357;28;20425;-68
2022/06/21 02:11:58;;;;;;;3.00;2.80;;;11.90;99.90;;;;;;5054252;28;20981;-70
2022/06/21 02:14:29;;;;;;;6.80;2.63;;;11.90;99.90;;;;;;5054249;28;20463;-68
2022/06/21 02:17:28;;;;;;;2.13;1.97;;;11.90;99.90;;;;;;5054137;28;20459;-68
2022/06/21 02:20:10;;;;;;;2.70;2.50;;;11.90;99.90;;;;;;5035721;28;20475;-68
2022/06/21 02:22:36;;;;;;;4.27;3.47;;;11.80;99.90;;;;;;5054221;28;20425;-68
2022/06/21 02:25:03;;;;;;;2.97;2.70;;;11.80;99.90;;;;;;5054541;28;20413;-68
2022/06/21 02:27:31;;;;;;;5.03;2.90;;;11.80;99.90;;;;;;5054585;28;20258;-70
2022/06/21 02:30:00;;;;;;;3.20;2.93;;;11.70;99.90;;;;;;5054239;28;20762;-69
2022/06/21 02:32:52;;;;;;;3.53;3.07;;;11.70;99.90;;;;;;5054250;28;20432;-69
2022/06/21 02:35:22;;;;;;;3.60;2.73;;;11.70;99.90;;;;;;5049325;28;20795;-68
2022/06/21 02:37:51;;;;;;;2.70;2.47;;;11.70;99.90;;;;;;5053934;28;20445;-68
2022/06/21 02:40:32;;;;;;;3.07;2.77;;;11.60;99.90;;;;;;5053656;28;20408;-68
2022/06/21 02:43:27;;;;;;;3.13;2.27;;;11.60;99.90;;;;;;5053725;28;20432;-69
2022/06/21 02:46:16;;;;;;;3.60;3.30;;;11.50;99.90;;;;;;5043750;28;20418;-68
2022/06/21 02:48:49;;;;;;;3.70;2.50;;;11.60;99.90;;;;;;5053422;28;20436;-68
2022/06/21 02:51:23;;;;;;;3.80;2.40;;;11.50;99.90;;;;;;5053319;28;20544;-68
2022/06/21 02:54:04;;;;;;;2.93;2.50;;;11.50;99.90;;;;;;5053410;28;20393;-68
2022/06/21 02:57:07;;;;;;;3.60;3.30;;;11.50;99.90;;;;;;5053391;28;20460;-68
2022/06/21 02:59:36;;;;;;;10.80;3.37;;;11.50;99.90;;;;;;5049412;28;20417;-68
2022/06/21 03:02:07;;;;;;;4.50;3.13;;;11.50;99.90;;;;;;5052990;28;20421;-68
2022/06/21 03:04:39;;;;;;;2.90;2.70;;;11.50;99.90;;;;;;5053123;28;20407;-68
2022/06/21 03:07:07;;;;;;;5.77;3.07;;;11.50;99.90;;;;;;5053537;28;20773;-68
2022/06/21 03:09:34;;;;;;;4.40;2.63;;;11.50;99.90;;;;;;5054459;28;20500;-68
2022/06/21 03:12:04;;;;;;;8.03;3.50;;;11.50;99.90;;;;;;5059356;28;20425;-68
2022/06/21 03:14:33;;;;;;;2.93;2.73;;;11.50;99.90;;;;;;5053272;28;20409;-68
2022/06/21 03:17:02;;;;;;;5.80;3.60;;;11.50;99.90;;;;;;5053082;28;20540;-68
2022/06/21 03:19:38;;;;;;;5.20;3.27;;;11.50;99.90;;;;;;5053125;28;20433;-68
2022/06/21 03:22:14;;;;;;;5.47;3.77;;;11.50;99.90;;;;;;5052945;28;20425;-68
2022/06/21 03:24:40;;;;;;;7.63;2.97;;;11.50;99.90;;;;;;5052859;28;20407;-69
2022/06/21 03:27:27;;;;;;;3.50;3.20;;;11.50;99.90;;;;;;5052773;28;20401;-68
2022/06/21 03:29:53;;;;;;;3.70;2.70;;;11.50;99.90;;;;;;5053095;28;20253;-68
2022/06/21 03:32:19;;;;;;;4.03;3.30;;;11.50;99.90;;;;;;5053222;28;20471;-68
2022/06/21 03:34:46;;;;;;;2.73;2.53;;;11.50;99.90;;;;;;5052827;28;20405;-68
2022/06/21 03:37:12;;;;;;;2.57;2.37;;;11.50;99.90;;;;;;5052797;28;20187;-68
2022/06/21 03:42:29;;;;;;;3.53;2.93;;;11.50;99.90;;;;;;5052980;28;20228;-68
2022/06/21 03:45:10;;;;;;;5.10;2.50;;;11.60;99.90;;;;;;5052210;28;20405;-68
2022/06/21 03:47:39;;;;;;;3.50;3.20;;;11.60;99.90;;;;;;5034697;28;20494;-68
2022/06/21 03:50:30;;;;;;;3.33;3.03;;;11.60;99.90;;;;;;5054231;28;20428;-68
2022/06/21 03:53:06;;;;;;;3.80;2.70;;;11.70;99.90;;;;;;5052346;28;20547;-68
2022/06/21 03:56:15;;;;;;;2.73;2.53;;;11.80;99.90;;;;;;5052519;28;20409;-68
2022/06/21 03:58:54;;;;;;;5.63;2.77;;;11.80;99.90;;;;;;4952153;29;20473;-69
2022/06/21 04:01:30;;;;;;;4.33;2.33;;;11.90;99.90;;;;;;4953740;28;20434;-68
2022/06/21 04:04:10;;;;;;;3.50;3.07;;;12.00;99.90;;;;;;5018720;28;20409;-69
2022/06/21 04:06:54;;;;;;;2.83;2.63;;;12.00;99.90;;;;;;5053698;28;20409;-68
2022/06/21 04:09:32;;;;;;;3.57;3.27;;;12.10;99.90;;;;;;5053133;28;20741;-68
2022/06/21 04:12:06;;;;;;;2.47;2.27;;;12.10;99.90;;;;;;5052881;28;20425;-68
2022/06/21 04:14:41;;;;;;;3.67;2.57;;;12.10;99.90;;;;;;5052844;28;20400;-68
2022/06/21 04:17:21;;;;;;;2.63;2.23;;;12.40;99.90;;;;;;5052650;28;20448;-68
2022/06/21 04:20:21;;;;;;;2.50;2.37;;;13.20;99.90;;;;;;5052492;28;20397;-69
2022/06/21 04:22:55;;;;;;;2.80;2.13;;;13.90;99.90;;;;;;5052780;28;20424;-68
2022/06/21 04:25:35;;;;;;;2.17;1.60;;;14.20;99.90;;;;;;5052430;28;20389;-68
2022/06/21 04:28:11;;;;;;;3.67;2.50;;;14.00;99.90;;;;;;5052259;28;20497;-69
2022/06/21 04:30:51;;;;;;;4.10;1.80;;;14.30;99.90;;;;;;5052476;28;20402;-68
2022/06/21 04:33:23;;;;;;;8.03;1.97;;;14.20;99.90;;;;;;5052787;28;20412;-68
2022/06/21 04:35:51;;;;;;;2.70;2.50;;;13.70;99.90;;;;;;5052221;28;20409;-69
2022/06/21 04:38:28;;;;;;;6.23;2.07;;;13.60;99.90;;;;;;5052167;28;20442;-69
2022/06/21 04:41:01;;;;;;;6.30;2.30;;;13.40;99.90;;;;;;5052504;28;20526;-69
2022/06/21 04:43:30;;;;;;;3.07;2.83;;;13.10;99.90;;;;;;5051905;28;20406;-68
2022/06/21 04:46:10;;;;;;;3.40;3.20;;;13.20;99.90;;;;;;5051448;28;20393;-68
2022/06/21 04:48:52;;;;;;;2.80;2.43;;;13.00;99.90;;;;;;5051793;28;20412;-69
2022/06/21 04:51:38;;;;;;;3.03;2.60;;;12.90;99.90;;;;;;5051471;28;20453;-69
2022/06/21 04:54:15;;;;;;;2.80;2.47;;;13.00;99.90;;;;;;5052018;28;20405;-69
2022/06/21 04:57:28;;;;;;;4.67;2.50;;;13.10;99.90;;;;;;5053323;28;20477;-69
2022/06/21 04:59:58;;;;;;;3.53;2.50;;;13.10;99.90;;;;;;5044618;28;20405;-69
2022/06/21 05:02:31;;;;;;;6.50;4.03;;;13.30;99.90;;;;;;5051158;28;20482;-69
2022/06/21 05:04:59;;;;;;;3.40;3.10;;;13.30;99.90;;;;;;5051066;28;20409;-69
2022/06/21 05:07:29;;;;;;;3.30;3.00;;;13.20;99.90;;;;;;5051369;28;20456;-69
2022/06/21 05:09:57;;;;;;;2.53;2.33;;;13.30;99.90;;;;;;5055233;28;20417;-69
2022/06/21 05:12:36;;;;;;;3.83;2.80;;;13.40;99.90;;;;;;5054787;28;20428;-69
2022/06/21 05:15:06;;;;;;;4.10;3.07;;;13.50;99.90;;;;;;5055075;28;20444;-70
2022/06/21 05:17:37;;;;;;;2.60;2.40;;;13.70;99.90;;;;;;5055345;28;20870;-69
2022/06/21 05:20:10;;;;;;;2.40;2.20;;;13.80;99.90;;;;;;5055384;28;20393;-69
2022/06/21 05:22:42;;;;;;;2.40;2.20;;;13.80;99.90;;;;;;5037243;28;20436;-69
2022/06/21 05:25:16;;;;;;;3.50;2.40;;;13.90;99.90;;;;;;5054753;28;20409;-69
2022/06/21 05:27:56;;;;;;;2.87;2.40;;;13.60;99.90;;;;;;5055064;28;20442;-69
2022/06/21 05:30:45;;;;;;;3.10;2.40;;;13.60;99.90;;;;;;5055431;28;20409;-69
2022/06/21 05:33:21;;;;;;;2.57;2.23;;;13.90;99.90;;;;;;5055446;28;20412;-69
2022/06/21 05:35:47;;;;;;;1.60;1.50;;;14.10;99.90;;;;;;5055195;28;20413;-68
2022/06/21 05:38:22;;;;;;;2.37;2.17;;;14.00;99.90;;;;;;5056041;28;20481;-69
2022/06/21 05:40:56;;;;;;;2.90;2.03;;;14.20;99.90;;;;;;5056316;28;20425;-69
2022/06/21 05:43:37;;;;;;;3.17;1.80;;;14.60;99.90;;;;;;5056840;28;20492;-70
2022/06/21 05:46:14;;;;;;;2.07;1.87;;;14.60;99.90;;;;;;5055661;28;20402;-69
2022/06/21 05:48:41;;;;;;;1.63;1.40;;;15.80;99.90;;;;;;5054565;28;20411;-69
2022/06/21 05:51:14;;;;;;;1.73;1.60;;;15.40;99.90;;;;;;5054798;28;20452;-70
2022/06/21 05:53:43;;;;;;;3.03;1.50;;;16.20;99.90;;;;;;5036885;28;20410;-70
2022/06/21 05:56:14;;;;;;;4.03;1.50;;;16.10;99.90;;;;;;5053913;28;20500;-68
2022/06/21 05:58:51;;;;;;;3.00;2.10;;;17.00;99.90;;;;;;5053738;28;20473;-69
2022/06/21 06:01:27;;;;;;;3.27;1.50;;;17.90;99.90;;;;;;5054343;28;20422;-69
2022/06/21 06:04:05;;;;;;;1.90;1.40;;;17.20;99.90;;;;;;5054186;28;20428;-69
2022/06/21 06:06:35;;;;;;;5.50;1.57;;;17.90;99.90;;;;;;5053587;28;20912;-69
2022/06/21 06:09:27;;;;;;;2.87;1.67;;;18.50;99.90;;;;;;5053993;28;20397;-69
2022/06/21 06:12:10;;;;;;;4.73;1.67;;;18.70;99.90;;;;;;5053839;28;20416;-69
2022/06/21 06:14:58;;;;;;;1.53;1.33;;;19.80;99.90;;;;;;5053484;28;20400;-69
2022/06/21 06:17:33;;;;;;;4.10;1.23;;;19.40;99.90;;;;;;5053666;28;20541;-69
2022/06/21 06:20:06;;;;;;;2.60;1.67;;;18.90;99.90;;;;;;5052944;28;20408;-69
2022/06/21 06:22:38;;;;;;;2.97;1.87;;;18.70;99.90;;;;;;5053679;28;20435;-69
2022/06/21 06:25:30;;;;;;;1.60;1.17;;;18.00;99.90;;;;;;5053647;28;20908;-69
2022/06/21 06:28:16;;;;;;;2.83;1.53;;;18.90;99.90;;;;;;5053767;28;20413;-68
2022/06/21 06:31:40;;;;;;;1.77;1.30;;;19.40;99.90;;;;;;5053693;28;20987;-69
2022/06/21 06:34:11;;;;;;;2.87;1.30;;;19.80;99.90;;;;;;5030714;28;20514;-69
2022/06/21 06:37:30;;;;;;;2.60;1.30;;;18.50;99.90;;;;;;5053236;28;20402;-69
2022/06/21 06:39:56;;;;;;;1.30;1.00;;;18.30;99.90;;;;;;5013313;28;20494;-69
2022/06/21 06:42:25;;;;;;;1.70;1.30;;;19.20;99.90;;;;;;5053565;28;20504;-69
2022/06/21 06:45:00;;;;;;;1.87;1.10;;;19.90;99.90;;;;;;5037301;28;20470;-69
2022/06/21 06:47:35;;;;;;;2.00;1.20;;;20.20;99.90;;;;;;5058585;28;20496;-69
2022/06/21 06:50:13;;;;;;;4.70;1.80;;;18.90;99.90;;;;;;5053651;28;20418;-69
2022/06/21 06:52:46;;;;;;;2.97;1.30;;;19.00;99.90;;;;;;5053078;28;20537;-69
2022/06/21 06:55:25;;;;;;;4.10;0.90;;;20.40;99.90;;;;;;5052845;28;20459;-69
2022/06/21 06:57:56;;;;;;;2.70;1.33;;;21.40;99.90;;;;;;5053422;28;20454;-69
2022/06/21 07:00:26;;;;;;;1.47;1.30;;;21.00;99.90;;;;;;5053490;28;20518;-68
2022/06/21 07:03:06;;;;;;;1.30;1.20;;;21.60;99.90;;;;;;5053457;28;20433;-69
2022/06/21 07:05:43;;;;;;;2.30;1.13;;;22.50;99.90;;;;;;5054371;28;20828;-69
2022/06/21 07:08:35;;;;;;;1.67;1.00;;;21.20;99.90;;;;;;5053489;28;20408;-69
2022/06/21 07:11:09;;;;;;;2.43;1.00;;;22.10;99.90;;;;;;5053645;28;20456;-70
2022/06/21 07:13:35;;;;;;;1.40;1.30;;;23.00;99.90;;;;;;5053613;28;20409;-68
2022/06/21 07:16:10;;;;;;;2.40;1.13;;;23.60;99.90;;;;;;5053220;28;20463;-69
2022/06/21 07:18:45;;;;;;;1.53;1.13;;;23.80;99.90;;;;;;5055098;28;20606;-68
2022/06/21 07:21:10;;;;;;;1.20;0.90;;;24.30;99.90;;;;;;5056697;28;20777;-68
2022/06/21 07:23:36;;;;;;;3.30;1.30;;;23.90;99.90;;;;;;5053278;28;20472;-68
2022/06/21 07:26:13;;;;;;;2.67;1.20;;;24.50;99.90;;;;;;5052214;28;20245;-68
2022/06/21 07:28:58;;;;;;;1.20;1.00;;;24.70;98.20;;;;;;5052397;28;20166;-69
2022/06/21 07:31:31;;;;;;;1.60;0.80;;;23.50;98.00;;;;;;5034378;28;20436;-69
2022/06/21 07:34:23;;;;;;;1.10;1.00;;;21.70;99.90;;;;;;5052840;28;20417;-69
2022/06/21 07:37:20;;;;;;;1.37;0.90;;;23.90;99.90;;;;;;5038535;28;20475;-68
2022/06/21 07:39:59;;;;;;;1.70;1.03;;;23.00;99.40;;;;;;5051018;28;20455;-69
2022/06/21 07:42:54;;;;;;;2.50;1.10;;;23.20;99.90;;;;;;5051966;28;20416;-68
2022/06/21 07:45:46;;;;;;;1.50;0.93;;;22.90;99.90;;;;;;5051837;28;20397;-69
2022/06/21 07:48:18;;;;;;;2.87;1.10;;;22.40;99.90;;;;;;5041324;28;20474;-70
2022/06/21 07:50:49;;;;;;;1.30;0.90;;;23.00;99.90;;;;;;5051700;28;20405;-69
2022/06/21 07:53:20;;;;;;;1.87;0.90;;;23.80;97.60;;;;;;5051834;28;20696;-69
2022/06/21 07:56:12;;;;;;;1.10;1.00;;;24.50;98.10;;;;;;5051645;28;20401;-69
2022/06/21 07:59:00;;;;;;;1.47;1.03;;;24.80;96.10;;;;;;5041159;28;20860;-69
2022/06/21 08:07:20;;;;;;;1.30;1.00;;;23.60;94.60;;;;;;5051748;28;20428;-69
2022/06/21 08:10:02;;;;;;;3.20;1.20;;;23.30;94.90;;;;;;5051968;28;20809;-69
2022/06/21 08:12:27;;;;;;;2.40;1.17;;;24.40;91.90;;;;;;5051834;28;20420;-69
2022/06/21 08:14:53;;;;;;;1.47;1.30;;;23.80;91.80;;;;;;5051127;28;20409;-69
2022/06/21 08:17:58;;;;;;;1.30;1.03;;;25.10;92.20;;;;;;5051734;28;20191;-70
2022/06/21 08:20:34;;;;;;;1.23;1.10;;;25.20;92.70;;;;;;5037186;28;20466;-70
2022/06/21 08:23:21;;;;;;;2.20;1.03;;;23.90;91.10;;;;;;5051485;28;20433;-69
2022/06/21 08:26:02;;;;;;;1.67;0.80;;;23.90;92.60;;;;;;5051277;28;20401;-69
2022/06/21 08:28:52;;;;;;;2.13;1.10;;;24.40;92.00;;;;;;5051380;28;21110;-69
2022/06/21 08:31:28;;;;;;;2.30;1.20;;;24.60;90.90;;;;;;5053479;28;20487;-70
2022/06/21 08:33:59;;;;;;;2.03;1.17;;;23.60;91.90;;;;;;5057605;28;20408;-70
2022/06/21 08:36:37;;;;;;;1.17;0.90;;;23.70;92.10;;;;;;5051953;28;20441;-69
2022/06/21 08:39:29;;;;;;;2.60;0.90;;;22.80;93.00;;;;;;5051359;28;20401;-69
2022/06/21 08:42:21;;;;;;;3.17;2.80;;;24.40;90.80;;;;;;5051289;28;20447;-70
2022/06/21 08:44:46;;;;;;;2.03;1.00;;;24.40;90.40;;;;;;5050780;28;20394;-69
2022/06/21 08:47:23;;;;;;;3.20;1.20;;;23.30;91.60;;;;;;5051403;28;20467;-69
2022/06/21 08:50:09;;;;;;;0.97;0.90;;;24.10;90.80;;;;;;5051183;28;20170;-69
2022/06/21 08:53:10;;;;;;;4.83;0.90;;;22.40;90.20;;;;;;5051681;28;20986;-69
2022/06/21 08:55:45;;;;;;;1.43;0.97;;;24.20;92.50;;;;;;4962678;28;20414;-69
2022/06/21 08:58:17;;;;;;;1.40;0.77;;;25.10;90.10;;;;;;5050974;28;20814;-70
2022/06/21 09:00:59;;;;;;;2.47;1.27;;;25.50;86.00;;;;;;5051138;28;20413;-70
2022/06/21 09:03:48;;;;;;;0.87;0.87;;;25.70;88.20;;;;;;5051105;28;20403;-70
2022/06/21 09:06:26;;;;;;;1.90;0.90;;;25.30;85.90;;;;;;5051010;28;20405;-70
2022/06/21 09:09:45;;;;;;;1.97;1.20;;;24.20;82.40;;;;;;5051248;28;20411;-70
2022/06/21 09:12:44;;;;;;;1.27;0.70;;;23.70;90.30;;;;;;4950899;28;20506;-69
2022/06/21 09:15:31;;;;;;;1.50;0.90;;;25.20;89.70;;;;;;4950665;29;20545;-70
2022/06/21 09:18:09;;;;;;;1.10;0.90;;;23.80;87.10;;;;;;5045021;28;20464;-69
2022/06/21 09:20:42;;;;;;;2.80;0.90;;;24.40;90.90;;;;;;5051073;28;20397;-69
2022/06/21 09:23:32;;;;;;;2.50;0.90;;;24.80;87.30;;;;;;5050695;28;20417;-69
2022/06/21 09:26:05;;;;;;;1.77;1.17;;;25.50;83.60;;;;;;5050831;28;20409;-70
2022/06/21 09:28:43;;;;;;;2.90;1.00;;;26.20;85.90;;;;;;5050729;28;20402;-69
2022/06/21 09:31:15;;;;;;;1.63;0.90;;;25.40;85.80;;;;;;5050982;28;20557;-70
2022/06/21 09:33:44;;;;;;;1.80;0.77;;;24.30;89.10;;;;;;5050657;28;20785;-70
2022/06/21 09:36:21;;;;;;;3.20;0.97;;;25.10;90.10;;;;;;5050661;28;20406;-70
2022/06/21 09:39:05;;;;;;;1.93;0.87;;;25.20;88.10;;;;;;5032651;28;20953;-69
2022/06/21 09:41:52;;;;;;;1.27;1.00;;;23.80;90.70;;;;;;5050970;28;20551;-70
2022/06/21 09:44:24;;;;;;;1.80;1.10;;;24.30;88.10;;;;;;5033881;28;20417;-69
2022/06/21 09:46:58;;;;;;;1.40;1.00;;;24.90;90.90;;;;;;5050652;28;20405;-69
2022/06/21 09:49:47;;;;;;;2.30;0.90;;;24.70;87.80;;;;;;5050671;28;20401;-70
2022/06/21 09:52:35;;;;;;;2.43;0.83;;;24.50;90.30;;;;;;5050589;28;20441;-70
2022/06/21 09:55:27;;;;;;;1.03;0.93;;;24.80;90.10;;;;;;5051448;28;20398;-69
2022/06/21 09:58:28;;;;;;;1.77;1.10;;;23.80;87.70;;;;;;5053883;28;20725;-69
2022/06/21 10:01:02;;;;;;;1.40;0.80;;;24.90;90.70;;;;;;5054596;28;20417;-69
2022/06/21 10:03:39;;;;;;;1.07;0.83;;;24.50;88.20;;;;;;5053951;28;20408;-69
2022/06/21 10:06:17;;;;;;;1.90;0.90;;;24.80;85.90;;;;;;5053513;28;20451;-70
2022/06/21 10:08:45;;;;;;;1.30;1.20;;;25.50;84.20;;;;;;5053919;28;20790;-69
2022/06/21 10:11:32;;;;;;;0.67;0.67;;;25.20;82.00;;;;;;5053743;28;20464;-69
2022/06/21 10:14:42;;;;;;;1.23;1.10;;;24.70;84.40;;;;;;5053748;28;20401;-69
2022/06/21 10:17:25;;;;;;;4.87;1.10;;;25.40;82.30;;;;;;5054743;28;20457;-69
2022/06/21 10:20:09;;;;;;;1.73;0.90;;;23.80;82.80;;;;;;5059156;28;20437;-69
2022/06/21 10:22:41;;;;;;;2.10;1.17;;;23.60;86.30;;;;;;5056113;28;20416;-69
2022/06/21 10:25:36;;;;;;;2.50;1.00;;;23.40;88.10;;;;;;5053355;28;20546;-69
2022/06/21 10:28:20;;;;;;;2.93;1.30;;;23.60;86.30;;;;;;5053705;28;20443;-69
2022/06/21 10:31:18;;;;;;;4.43;1.00;;;23.00;86.30;;;;;;5054108;28;20392;-69
2022/06/21 10:34:02;;;;;;;2.63;0.97;;;22.80;89.40;;;;;;5054429;28;20833;-69
2022/06/21 10:36:28;;;;;;;4.13;1.33;;;22.90;87.80;;;;;;5054024;28;20423;-69
2022/06/21 10:39:31;;;;;;;1.67;1.10;;;23.30;87.20;;;;;;5053277;28;20455;-69
2022/06/21 10:42:46;;;;;;;1.63;1.10;;;23.60;86.30;;;;;;5053255;28;20182;-69
2022/06/21 10:45:27;;;;;;;1.07;0.83;;;22.80;88.10;;;;;;4952283;29;20403;-69
2022/06/21 10:48:13;;;;;;;1.07;0.97;;;23.50;85.70;;;;;;5042420;28;20410;-70
2022/06/21 10:51:02;;;;;;;1.10;1.00;;;23.30;84.90;;;;;;5052732;28;20403;-69
2022/06/21 10:53:59;;;;;;;1.10;1.00;;;23.50;87.90;;;;;;5040482;28;20417;-70
2022/06/21 10:57:10;;;;;;;2.43;1.37;;;23.10;88.10;;;;;;5052750;28;20404;-69
2022/06/21 11:02:33;;;;;;;1.33;0.90;;;23.00;85.10;;;;;;5052639;28;20470;-68
2022/06/21 11:05:17;;;;;;;1.23;1.03;;;23.20;85.10;;;;;;5052753;28;20416;-69
2022/06/21 11:07:57;;;;;;;0.90;0.90;;;23.60;82.20;;;;;;5053031;28;20406;-69
2022/06/21 11:10:29;;;;;;;1.10;1.00;;;23.60;82.30;;;;;;5053172;28;20489;-69
2022/06/21 11:13:03;;;;;;;1.00;0.90;;;23.90;80.50;;;;;;5052767;28;20540;-69
2022/06/21 11:15:49;;;;;;;1.17;0.90;;;23.80;81.70;;;;;;5052685;28;20397;-69
2022/06/21 11:18:43;;;;;;;1.40;1.00;;;23.30;80.30;;;;;;5052918;28;20605;-69
2022/06/21 11:21:27;;;;;;;5.13;1.10;;;22.90;81.00;;;;;;5052651;28;20448;-69
2022/06/21 11:24:11;;;;;;;1.20;1.10;;;23.10;80.40;;;;;;5053037;28;20406;-69
2022/06/21 11:26:59;;;;;;;1.20;1.03;;;23.20;78.50;;;;;;5052657;28;20470;-69
2022/06/21 11:30:00;;;;;;;3.00;1.00;;;23.10;78.60;;;;;;5034579;28;20408;-69
2022/06/21 11:32:40;;;;;;;1.67;0.80;;;23.00;79.70;;;;;;5031166;28;20432;-69
2022/06/21 11:35:20;;;;;;;1.10;0.90;;;23.10;79.00;;;;;;5052447;28;20402;-69
2022/06/21 11:38:15;;;;;;;1.10;1.00;;;23.10;76.50;;;;;;5052340;28;20813;-69
2022/06/21 11:41:05;;;;;;;0.90;0.90;;;22.90;76.40;;;;;;5047737;28;20414;-69
2022/06/21 11:43:48;;;;;;;1.60;0.87;;;23.30;78.00;;;;;;5035400;28;20409;-69
2022/06/21 11:46:24;;;;;;;0.80;0.73;;;23.30;75.20;;;;;;5051839;28;20478;-69
2022/06/21 11:49:15;;;;;;;1.03;0.93;;;23.00;75.50;;;;;;5052369;28;20447;-69
2022/06/21 11:51:48;;;;;;;1.17;0.80;;;23.30;77.00;;;;;;5062587;22;20877;-66
2022/06/21 11:54:50;;;;;;;1.10;0.97;;;23.60;76.10;;;;;;5050893;28;20413;-68
2022/06/21 11:57:25;;;;;;;1.50;1.00;;;23.60;76.70;;;;;;5008262;28;20466;-66
2022/06/21 11:59:59;;;;;;;1.17;1.00;;;23.60;75.20;;;;;;5052040;28;20458;-66
2022/06/21 12:02:34;;;;;;;1.07;0.80;;;23.70;73.40;;;;;;5052201;28;20833;-66
2022/06/21 12:05:32;;;;;;;1.27;0.80;;;23.40;73.00;;;;;;5052579;28;20427;-66
2022/06/21 12:08:03;;;;;;;1.30;1.13;;;23.50;73.90;;;;;;5052005;28;20408;-65
2022/06/21 12:10:56;;;;;;;1.70;0.93;;;23.50;72.20;;;;;;5051991;28;20502;-66
2022/06/21 12:13:53;;;;;;;1.40;0.93;;;23.50;73.10;;;;;;5051941;28;20461;-65
2022/06/21 12:16:34;;;;;;;6.90;1.50;;;23.60;73.90;;;;;;5051840;28;20403;-65
2022/06/21 12:19:25;;;;;;;1.53;1.10;;;23.50;72.50;;;;;;5051160;28;20525;-65
2022/06/21 12:21:58;;;;;;;1.73;0.90;;;23.70;73.10;;;;;;5050996;28;20454;-66
2022/06/21 12:24:26;;;;;;;1.30;1.07;;;23.70;73.90;;;;;;5051972;28;20399;-66
2022/06/21 12:26:55;;;;;;;1.03;0.90;;;23.80;75.30;;;;;;5051745;28;20496;-66
2022/06/21 12:29:22;;;;;;;1.60;0.90;;;23.70;74.70;;;;;;5052123;28;20499;-65
2022/06/21 12:31:55;;;;;;;1.07;0.93;;;23.90;75.10;;;;;;5051698;28;20566;-66
2022/06/21 12:34:33;;;;;;;2.60;0.90;;;23.70;74.40;;;;;;5051737;28;20404;-66
2022/06/21 12:37:07;;;;;;;1.67;1.17;;;23.90;73.70;;;;;;5051864;28;20931;-66
2022/06/21 12:39:57;;;;;;;2.30;1.23;;;24.00;74.00;;;;;;5035028;28;20781;-66
2022/06/21 12:42:56;;;;;;;1.00;0.90;;;24.20;72.20;;;;;;5051641;28;20790;-66
2022/06/21 12:45:52;;;;;;;1.43;0.90;;;24.20;72.60;;;;;;5051664;28;20407;-66
2022/06/21 12:48:42;;;;;;;1.07;0.70;;;24.10;72.80;;;;;;5051722;28;20801;-66
2022/06/21 12:51:24;;;;;;;3.43;1.20;;;23.90;73.50;;;;;;5051593;28;20424;-66
2022/06/21 12:54:32;;;;;;;1.80;1.10;;;24.50;73.80;;;;;;5051780;28;20427;-66
2022/06/21 12:56:58;;;;;;;1.67;0.93;;;24.50;70.70;;;;;;5051531;28;20405;-65
2022/06/21 12:59:38;;;;;;;1.53;1.00;;;24.00;71.00;;;;;;5051927;28;20415;-66
2022/06/21 13:02:22;;;;;;;0.80;0.80;;;24.50;73.40;;;;;;5051338;28;20720;-66
2022/06/21 13:04:57;;;;;;;1.80;0.93;;;24.10;71.20;;;;;;5051378;28;20407;-66
2022/06/21 13:07:41;;;;;;;1.00;0.90;;;24.00;71.40;;;;;;5051415;28;20423;-66
2022/06/21 13:10:45;;;;;;;2.03;1.07;;;24.10;71.20;;;;;;5051338;28;20495;-66
2022/06/21 13:13:30;;;;;;;1.47;0.97;;;24.60;70.50;;;;;;5051650;28;20430;-66
2022/06/21 13:16:29;;;;;;;0.80;0.60;;;24.20;69.50;;;;;;5051431;28;20897;-66
2022/06/21 13:19:37;;;;;;;1.23;1.13;;;24.10;69.60;;;;;;5040431;28;20475;-67
2022/06/21 13:22:31;;;;;;;0.80;0.80;;;24.60;67.80;;;;;;5040270;28;20510;-66
2022/06/21 13:25:09;;;;;;;0.90;0.90;;;24.40;67.50;;;;;;5051308;28;20406;-66
2022/06/21 13:27:46;;;;;;;1.03;0.93;;;24.30;68.80;;;;;;5033266;28;20403;-66
2022/06/21 13:30:41;;;;;;;1.50;0.97;;;24.40;68.20;;;;;;5053934;28;20394;-65
2022/06/21 13:33:28;;;;;;;1.13;1.00;;;24.50;68.20;;;;;;5037186;28;20463;-66
2022/06/21 13:35:59;;;;;;;2.17;1.57;;;24.40;68.80;;;;;;5055002;28;20414;-66
2022/06/21 13:38:49;;;;;;;1.90;1.10;;;23.90;67.10;;;;;;5054864;28;20787;-65
2022/06/21 13:44:18;;;;;;;2.73;1.00;;;24.40;67.70;;;;;;5054838;28;20398;-66
2022/06/21 13:46:52;;;;;;;1.63;1.00;;;24.60;67.80;;;;;;5054653;28;20477;-66
2022/06/21 13:49:28;;;;;;;3.20;1.00;;;24.80;67.90;;;;;;5054790;28;20392;-65
2022/06/21 13:52:21;;;;;;;1.90;0.70;;;24.80;66.10;;;;;;5054795;28;20786;-66
2022/06/21 13:54:58;;;;;;;1.33;0.60;;;24.60;67.40;;;;;;5045838;28;20425;-65
2022/06/21 13:58:03;;;;;;;1.83;1.00;;;24.70;69.10;;;;;;5054435;28;20944;-66
2022/06/21 14:00:43;;;;;;;0.90;0.80;;;24.90;69.70;;;;;;5054795;28;20897;-67
2022/06/21 14:03:35;;;;;;;1.00;0.90;;;24.80;68.80;;;;;;5036913;28;20529;-67